createdAt,value
2023-02-27T00:00:01.233Z,28.90
2023-02-27T00:02:29.146Z,23.40
2023-02-27T00:04:58.170Z,17.30
2023-02-27T00:07:26.336Z,30.60
2023-02-27T00:09:54.011Z,37.00
2023-02-27T00:12:21.662Z,40.40
2023-02-27T00:14:49.426Z,31.40
2023-02-27T00:17:17.089Z,26.90
2023-02-27T00:19:44.852Z,25.80
2023-02-27T00:22:12.513Z,30.10
2023-02-27T00:24:40.183Z,26.30
2023-02-27T00:27:07.810Z,27.80
2023-02-27T00:29:35.497Z,21.30
2023-02-27T00:32:03.798Z,24.50
2023-02-27T00:34:31.641Z,28.90
2023-02-27T00:36:59.299Z,21.70
2023-02-27T00:39:26.962Z,19.10
2023-02-27T00:41:54.725Z,24.40
2023-02-27T00:44:22.389Z,24.20
2023-02-27T00:46:50.073Z,23.20
2023-02-27T00:49:17.913Z,23.30
2023-02-27T00:51:45.676Z,23.80
2023-02-27T00:54:13.439Z,21.80
2023-02-27T00:56:41.510Z,15.00
2023-02-27T00:59:09.277Z,23.70
2023-02-27T01:01:37.039Z,26.00
2023-02-27T01:04:04.703Z,22.80
2023-02-27T01:06:32.374Z,25.00
2023-02-27T01:09:00.032Z,19.30
2023-02-27T01:11:28.001Z,19.70
2023-02-27T01:13:55.868Z,23.40
2023-02-27T01:16:23.675Z,24.70
2023-02-27T01:18:51.496Z,30.00
2023-02-27T01:21:19.157Z,22.30
2023-02-27T01:23:46.820Z,21.70
2023-02-27T01:26:14.491Z,24.40
2023-02-27T01:28:42.148Z,23.30
2023-02-27T01:31:09.805Z,22.10
2023-02-27T01:33:37.470Z,19.40
2023-02-27T01:36:05.126Z,14.60
2023-02-27T01:38:32.786Z,20.30
2023-02-27T01:41:00.964Z,24.00
2023-02-27T01:43:28.731Z,22.50
2023-02-27T01:45:56.518Z,25.00
2023-02-27T01:48:24.254Z,19.00
2023-02-27T01:50:52.016Z,25.20
2023-02-27T01:53:19.821Z,22.60
2023-02-27T01:55:47.553Z,22.80
2023-02-27T01:58:15.308Z,17.00
2023-02-27T02:03:51.182Z,13.40
2023-02-27T02:06:18.949Z,16.10
2023-02-27T02:08:46.615Z,20.10
2023-02-27T02:11:14.376Z,22.90
2023-02-27T02:13:42.145Z,21.10
2023-02-27T02:16:09.910Z,21.50
2023-02-27T02:18:37.665Z,18.70
2023-02-27T02:21:06.692Z,22.70
2023-02-27T02:23:34.624Z,24.00
2023-02-27T02:26:02.498Z,20.30
2023-02-27T02:28:30.257Z,23.50
2023-02-27T02:30:58.108Z,25.00
2023-02-27T02:33:25.990Z,25.90
2023-02-27T02:35:53.648Z,23.60
2023-02-27T02:38:21.310Z,19.10
2023-02-27T02:40:49.076Z,21.30
2023-02-27T02:43:16.735Z,22.70
2023-02-27T02:45:44.447Z,18.30
2023-02-27T02:48:12.163Z,28.00
2023-02-27T02:50:39.926Z,24.30
2023-02-27T02:53:07.696Z,27.20
2023-02-27T02:55:35.457Z,25.70
2023-02-27T02:58:03.730Z,23.00
2023-02-27T03:00:31.392Z,19.90
2023-02-27T03:02:59.160Z,25.00
2023-02-27T03:05:27.033Z,24.80
2023-02-27T03:07:54.755Z,24.20
2023-02-27T03:10:22.575Z,25.60
2023-02-27T03:12:50.428Z,25.80
2023-02-27T03:15:18.391Z,22.80
2023-02-27T03:17:47.482Z,21.50
2023-02-27T03:20:15.107Z,26.30
2023-02-27T03:22:42.803Z,20.70
2023-02-27T03:25:10.567Z,23.90
2023-02-27T03:27:38.329Z,19.90
2023-02-27T03:30:06.199Z,19.40
2023-02-27T03:32:33.955Z,23.20
2023-02-27T03:35:01.828Z,20.00
2023-02-27T03:37:30.201Z,20.70
2023-02-27T03:39:57.862Z,21.90
2023-02-27T03:42:25.568Z,23.30
2023-02-27T03:44:53.285Z,29.00
2023-02-27T03:47:21.050Z,22.90
2023-02-27T03:49:51.273Z,20.50
2023-02-27T03:52:18.932Z,22.80
2023-02-27T03:54:48.438Z,20.10
2023-02-27T03:57:16.098Z,22.00
2023-02-27T03:59:43.863Z,19.50
2023-02-27T04:02:11.602Z,22.00
2023-02-27T04:04:39.598Z,20.90
2023-02-27T04:07:39.830Z,22.80
2023-02-27T04:10:07.484Z,28.40
2023-02-27T04:12:35.145Z,29.80
2023-02-27T04:15:02.807Z,21.30
2023-02-27T04:17:30.570Z,30.60
2023-02-27T04:19:58.332Z,25.40
2023-02-27T04:22:26.098Z,21.40
2023-02-27T04:24:53.861Z,22.00
2023-02-27T04:27:21.627Z,25.20
2023-02-27T04:29:49.300Z,23.90
2023-02-27T04:32:17.194Z,20.50
2023-02-27T04:34:45.133Z,12.70
2023-02-27T04:37:12.896Z,18.70
2023-02-27T04:39:40.572Z,21.00
2023-02-27T04:42:08.319Z,16.10
2023-02-27T04:44:36.290Z,10.10
2023-02-27T04:47:04.056Z,18.90
2023-02-27T04:49:31.920Z,14.50
2023-02-27T04:51:59.687Z,17.20
2023-02-27T04:54:27.349Z,14.50
2023-02-27T04:56:55.108Z,23.70
2023-02-27T04:59:22.775Z,16.50
2023-02-27T05:01:51.564Z,17.30
2023-02-27T05:04:19.424Z,17.50
2023-02-27T05:06:47.392Z,15.10
2023-02-27T05:09:15.157Z,15.00
2023-02-27T05:11:42.833Z,21.80
2023-02-27T05:14:10.484Z,14.40
2023-02-27T05:16:38.273Z,16.40
2023-02-27T05:19:06.004Z,15.50
2023-02-27T05:21:33.669Z,18.80
2023-02-27T05:24:01.337Z,18.40
2023-02-27T05:26:29.095Z,16.80
2023-02-27T05:28:56.857Z,19.60
2023-02-27T05:31:24.542Z,16.00
2023-02-27T05:33:52.389Z,16.80
2023-02-27T05:36:20.149Z,21.20
2023-02-27T05:38:47.908Z,12.80
2023-02-27T05:41:15.585Z,12.40
2023-02-27T05:43:43.231Z,19.80
2023-02-27T05:46:10.933Z,16.80
2023-02-27T05:48:38.763Z,18.30
2023-02-27T05:51:06.522Z,18.50
2023-02-27T05:53:34.207Z,19.10
2023-02-27T05:56:01.959Z,16.70
2023-02-27T05:58:29.641Z,17.70
2023-02-27T06:00:57.387Z,14.70
2023-02-27T06:03:25.095Z,17.10
2023-02-27T06:05:53.543Z,14.10
2023-02-27T06:08:21.593Z,20.10
2023-02-27T06:10:50.175Z,18.70
2023-02-27T06:13:17.937Z,22.20
2023-02-27T06:15:45.614Z,21.80
2023-02-27T06:18:13.362Z,15.10
2023-02-27T06:20:41.036Z,11.50
2023-02-27T06:23:08.803Z,13.60
2023-02-27T06:25:36.861Z,11.90
2023-02-27T06:28:04.527Z,14.30
2023-02-27T06:30:32.340Z,15.00
2023-02-27T06:33:01.172Z,15.20
2023-02-27T06:35:29.555Z,16.50
2023-02-27T06:37:57.210Z,14.30
2023-02-27T06:40:24.988Z,15.30
2023-02-27T06:42:52.738Z,12.40
2023-02-27T06:45:20.507Z,15.50
2023-02-27T06:47:48.162Z,13.50
2023-02-27T06:50:15.842Z,15.00
2023-02-27T06:52:43.595Z,17.20
2023-02-27T06:55:11.290Z,13.60
2023-02-27T06:57:39.014Z,15.00
2023-02-27T07:00:07.496Z,18.50
2023-02-27T07:02:35.257Z,18.60
2023-02-27T07:05:07.672Z,17.80
2023-02-27T07:07:37.935Z,16.10
2023-02-27T07:10:06.024Z,20.10
2023-02-27T07:12:33.789Z,17.80
2023-02-27T07:15:01.564Z,15.40
2023-02-27T07:17:29.317Z,22.00
2023-02-27T07:19:57.082Z,12.50
2023-02-27T07:22:24.749Z,13.20
2023-02-27T07:24:52.505Z,17.60
2023-02-27T07:27:20.177Z,19.00
2023-02-27T07:29:47.832Z,18.60
2023-02-27T07:32:15.670Z,17.10
2023-02-27T07:34:43.458Z,16.00
2023-02-27T07:37:11.237Z,28.00
2023-02-27T07:39:38.888Z,20.30
2023-02-27T07:42:06.551Z,16.50
2023-02-27T07:44:34.314Z,15.20
2023-02-27T07:47:02.196Z,10.80
2023-02-27T07:49:30.054Z,15.00
2023-02-27T07:51:57.812Z,17.90
2023-02-27T07:54:25.574Z,11.30
2023-02-27T07:56:53.239Z,14.80
2023-02-27T07:59:20.898Z,12.20
2023-02-27T08:01:48.662Z,13.60
2023-02-27T08:04:16.442Z,12.90
2023-02-27T08:06:44.194Z,10.40
2023-02-27T08:09:11.956Z,7.50
2023-02-27T08:11:39.720Z,15.00
2023-02-27T08:14:08.303Z,21.30
2023-02-27T08:16:36.187Z,14.90
2023-02-27T08:19:04.036Z,14.50
2023-02-27T08:21:31.803Z,10.20
2023-02-27T08:23:59.561Z,9.30
2023-02-27T08:26:27.649Z,13.20
2023-02-27T08:28:55.608Z,15.10
2023-02-27T08:31:23.830Z,8.40
2023-02-27T08:34:01.068Z,14.80
2023-02-27T08:36:35.691Z,14.30
2023-02-27T08:39:03.359Z,8.40
2023-02-27T08:41:31.136Z,8.90
2023-02-27T08:43:58.874Z,9.90
2023-02-27T08:46:26.960Z,8.10
2023-02-27T08:48:55.117Z,13.20
2023-02-27T08:51:23.090Z,7.80
2023-02-27T08:53:50.861Z,8.70
2023-02-27T08:56:18.510Z,12.10
2023-02-27T08:58:46.180Z,9.60
2023-02-27T09:01:14.002Z,7.40
2023-02-27T09:03:41.803Z,7.80
2023-02-27T09:06:09.468Z,7.50
2023-02-27T09:08:37.229Z,8.80
2023-02-27T09:11:04.893Z,5.20
2023-02-27T09:13:32.553Z,9.70
2023-02-27T09:16:00.318Z,7.30
2023-02-27T09:18:28.085Z,8.80
2023-02-27T09:20:56.685Z,9.30
2023-02-27T09:23:24.456Z,13.50
2023-02-27T09:25:52.193Z,12.80
2023-02-27T09:28:21.702Z,6.00
2023-02-27T09:30:49.363Z,14.00
2023-02-27T09:33:17.128Z,15.70
2023-02-27T09:35:44.790Z,12.70
2023-02-27T09:38:14.086Z,5.90
2023-02-27T09:40:41.949Z,10.40
2023-02-27T09:43:09.633Z,17.80
2023-02-27T09:45:39.461Z,11.60
2023-02-27T09:48:07.398Z,9.10
2023-02-27T09:50:35.673Z,7.30
2023-02-27T09:53:03.637Z,8.40
2023-02-27T09:55:31.407Z,8.60
2023-02-27T09:57:59.171Z,8.10
2023-02-27T10:00:26.930Z,8.60
2023-02-27T10:02:55.788Z,9.10
2023-02-27T10:05:24.170Z,10.30
2023-02-27T10:07:51.860Z,6.10
2023-02-27T10:10:19.537Z,8.90
2023-02-27T10:12:47.285Z,5.50
2023-02-27T10:15:14.950Z,8.10
2023-02-27T10:17:42.712Z,13.40
2023-02-27T10:20:10.787Z,13.20
2023-02-27T10:22:38.445Z,9.80
2023-02-27T10:25:08.980Z,8.60
2023-02-27T10:27:40.530Z,5.90
2023-02-27T10:30:11.173Z,4.90
2023-02-27T10:32:39.025Z,13.10
2023-02-27T10:35:06.801Z,7.70
2023-02-27T10:37:34.554Z,6.10
2023-02-27T10:40:04.570Z,6.00
2023-02-27T10:42:32.341Z,6.80
2023-02-27T10:44:59.999Z,6.10
2023-02-27T10:47:27.965Z,6.00
2023-02-27T10:49:55.931Z,7.20
2023-02-27T10:52:23.593Z,6.30
2023-02-27T10:54:51.355Z,5.70
2023-02-27T10:57:19.015Z,5.40
2023-02-27T10:59:46.699Z,3.10
2023-02-27T11:02:14.441Z,5.50
2023-02-27T11:04:42.138Z,7.30
2023-02-27T11:07:09.877Z,8.70
2023-02-27T11:09:37.628Z,9.40
2023-02-27T11:12:05.392Z,15.50
2023-02-27T11:14:33.055Z,8.00
2023-02-27T11:17:00.826Z,6.00
2023-02-27T11:19:28.584Z,4.80
2023-02-27T11:21:56.245Z,4.90
2023-02-27T11:24:23.907Z,8.60
2023-02-27T11:26:51.570Z,8.70
2023-02-27T11:29:19.344Z,3.70
2023-02-27T11:31:47.335Z,5.80
2023-02-27T11:34:15.069Z,6.30
2023-02-27T11:36:42.744Z,3.30
2023-02-27T11:39:10.495Z,5.70
2023-02-27T11:41:38.259Z,6.00
2023-02-27T11:44:06.026Z,3.00
2023-02-27T11:46:47.537Z,5.00
2023-02-27T11:49:16.293Z,6.10
2023-02-27T11:51:43.959Z,5.90
2023-02-27T11:54:11.826Z,7.50
2023-02-27T11:56:39.496Z,8.80
2023-02-27T11:59:07.148Z,6.70
2023-02-27T12:01:34.831Z,7.20
2023-02-27T12:04:02.797Z,7.80
2023-02-27T12:06:30.535Z,4.60
2023-02-27T12:08:58.188Z,6.00
2023-02-27T12:11:28.541Z,6.90
2023-02-27T12:13:57.217Z,6.60
2023-02-27T12:16:24.966Z,6.60
2023-02-27T12:18:52.842Z,7.00
2023-02-27T12:21:20.509Z,7.40
2023-02-27T12:23:48.277Z,8.00
2023-02-27T12:26:16.033Z,12.00
2023-02-27T12:28:43.698Z,15.60
2023-02-27T12:31:11.416Z,9.00
2023-02-27T12:33:39.218Z,9.50
2023-02-27T12:36:06.930Z,6.10
2023-02-27T12:38:35.873Z,6.60
2023-02-27T12:41:03.535Z,8.40
2023-02-27T12:43:31.193Z,12.40
2023-02-27T12:45:58.911Z,12.50
2023-02-27T12:48:26.721Z,10.60
2023-02-27T12:50:54.585Z,12.50
2023-02-27T12:53:22.249Z,12.50
2023-02-27T12:55:50.013Z,12.90
2023-02-27T12:58:17.785Z,12.80
2023-02-27T13:00:46.518Z,12.80
2023-02-27T13:03:14.328Z,14.90
2023-02-27T13:05:43.478Z,11.30
2023-02-27T13:08:11.397Z,21.40
2023-02-27T13:10:39.060Z,15.70
2023-02-27T13:13:08.812Z,15.60
2023-02-27T13:15:37.458Z,14.00
2023-02-27T13:18:05.218Z,53.70
2023-02-27T13:20:32.896Z,37.70
2023-02-27T13:23:00.645Z,83.50
2023-02-27T13:25:28.305Z,139.60
2023-02-27T13:27:55.976Z,54.30
2023-02-27T13:30:23.838Z,33.30
2023-02-27T13:32:51.780Z,25.00
2023-02-27T13:35:20.179Z,22.30
2023-02-27T13:37:47.844Z,49.50
2023-02-27T13:40:15.505Z,54.70
2023-02-27T13:42:43.173Z,33.40
2023-02-27T13:45:10.831Z,34.30
2023-02-27T13:47:39.921Z,26.60
2023-02-27T13:50:07.585Z,29.60
2023-02-27T13:52:35.362Z,30.30
2023-02-27T13:55:11.810Z,17.70
2023-02-27T13:57:40.094Z,14.90
2023-02-27T14:00:09.354Z,10.90
2023-02-27T14:02:40.117Z,11.10
2023-02-27T14:05:09.835Z,24.50
2023-02-27T14:07:37.495Z,40.20
2023-02-27T14:10:05.157Z,31.90
2023-02-27T14:12:44.166Z,14.30
2023-02-27T14:15:12.764Z,22.90
2023-02-27T14:17:41.453Z,28.00
2023-02-27T14:20:09.322Z,34.80
2023-02-27T14:22:37.491Z,14.30
2023-02-27T14:25:06.890Z,14.80
2023-02-27T14:27:34.661Z,17.80
2023-02-27T14:30:02.428Z,18.60
2023-02-27T14:32:30.183Z,15.50
2023-02-27T14:34:57.948Z,13.60
2023-02-27T14:37:26.568Z,13.20
2023-02-27T14:39:54.293Z,16.30
2023-02-27T14:42:21.966Z,11.20
2023-02-27T14:44:49.649Z,15.40
2023-02-27T14:47:17.486Z,20.90
2023-02-27T14:49:45.155Z,21.00
2023-02-27T14:52:12.926Z,16.80
2023-02-27T14:54:40.684Z,15.00
2023-02-27T14:57:08.439Z,21.00
2023-02-27T14:59:37.027Z,15.70
2023-02-27T15:02:04.869Z,8.00
2023-02-27T15:04:32.873Z,10.80
2023-02-27T15:07:01.296Z,12.10
2023-02-27T15:09:29.410Z,15.40
2023-02-27T15:12:04.058Z,14.40
2023-02-27T15:14:32.521Z,10.00
2023-02-27T15:17:00.284Z,9.50
2023-02-27T15:19:28.049Z,9.30
2023-02-27T15:21:55.811Z,11.10
2023-02-27T15:24:23.580Z,7.10
2023-02-27T15:26:51.344Z,10.10
2023-02-27T15:29:19.103Z,12.40
2023-02-27T15:31:46.994Z,10.50
2023-02-27T15:34:14.950Z,6.60
2023-02-27T15:36:42.905Z,10.00
2023-02-27T15:39:10.977Z,9.70
2023-02-27T15:41:38.743Z,8.30
2023-02-27T15:44:06.510Z,7.20
2023-02-27T15:46:34.189Z,11.20
2023-02-27T15:49:01.937Z,9.20
2023-02-27T15:51:29.857Z,10.20
2023-02-27T15:53:57.768Z,10.60
2023-02-27T15:56:25.425Z,10.90
2023-02-27T15:59:00.203Z,11.90
2023-02-27T16:01:30.022Z,9.80
2023-02-27T16:03:58.137Z,11.20
2023-02-27T16:06:27.061Z,10.00
2023-02-27T16:08:55.198Z,10.10
2023-02-27T16:11:22.977Z,10.10
2023-02-27T16:13:50.736Z,8.50
2023-02-27T16:16:18.504Z,10.40
2023-02-27T16:18:46.469Z,9.70
2023-02-27T16:21:14.223Z,15.40
2023-02-27T16:23:41.990Z,10.50
2023-02-27T16:26:09.753Z,38.50
2023-02-27T16:28:37.424Z,61.40
2023-02-27T16:31:05.177Z,36.30
2023-02-27T16:33:33.049Z,20.30
2023-02-27T16:36:00.817Z,15.50
2023-02-27T16:38:28.571Z,14.70
2023-02-27T16:40:56.383Z,15.20
2023-02-27T16:43:24.097Z,10.30
2023-02-27T16:45:52.367Z,12.70
2023-02-27T16:48:20.241Z,9.70
2023-02-27T16:50:47.903Z,11.40
2023-02-27T16:53:17.100Z,11.90
2023-02-27T16:55:44.868Z,11.10
2023-02-27T16:58:12.628Z,9.50
2023-02-27T17:00:40.290Z,10.60
2023-02-27T17:03:08.052Z,8.80
2023-02-27T17:05:35.819Z,10.30
2023-02-27T17:08:03.580Z,6.50
2023-02-27T17:10:31.271Z,10.20
2023-02-27T17:12:59.009Z,10.20
2023-02-27T17:15:28.105Z,8.50
2023-02-27T17:17:56.382Z,10.60
2023-02-27T17:20:26.297Z,11.00
2023-02-27T17:22:54.060Z,15.80
2023-02-27T17:25:21.837Z,13.30
2023-02-27T17:27:50.414Z,15.60
2023-02-27T17:30:18.273Z,15.00
2023-02-27T17:32:45.935Z,14.70
2023-02-27T17:35:13.702Z,9.30
2023-02-27T17:37:41.463Z,15.10
2023-02-27T17:40:09.126Z,12.30
2023-02-27T17:42:36.898Z,11.50
2023-02-27T17:45:06.539Z,12.40
2023-02-27T17:47:34.292Z,15.40
2023-02-27T17:50:02.022Z,11.50
2023-02-27T17:52:29.789Z,13.50
2023-02-27T17:54:57.553Z,17.50
2023-02-27T17:57:25.213Z,13.10
2023-02-27T17:59:52.873Z,14.80
2023-02-27T18:02:20.709Z,21.70
2023-02-27T18:04:48.602Z,15.70
2023-02-27T18:07:16.264Z,10.70
2023-02-27T18:09:45.974Z,12.90
2023-02-27T18:12:13.741Z,13.90
2023-02-27T18:14:41.503Z,16.00
2023-02-27T18:17:12.744Z,13.10
2023-02-27T18:19:41.124Z,15.40
2023-02-27T18:22:09.094Z,18.10
2023-02-27T18:24:37.063Z,15.40
2023-02-27T18:27:04.825Z,16.30
2023-02-27T18:29:32.489Z,20.40
2023-02-27T18:32:00.632Z,18.20
2023-02-27T18:34:28.527Z,17.10
2023-02-27T18:36:58.172Z,21.80
2023-02-27T18:39:26.104Z,22.40
2023-02-27T18:41:53.809Z,20.10
2023-02-27T18:44:21.535Z,24.10
2023-02-27T18:46:49.587Z,19.40
2023-02-27T18:49:17.264Z,15.90
2023-02-27T18:51:45.028Z,19.50
2023-02-27T18:54:12.794Z,17.90
2023-02-27T18:56:40.962Z,15.10
2023-02-27T18:59:08.727Z,18.10
2023-02-27T19:01:36.498Z,19.80
2023-02-27T19:04:04.972Z,21.20
2023-02-27T19:06:32.841Z,21.50
2023-02-27T19:09:00.602Z,19.50
2023-02-27T19:11:29.744Z,23.10
2023-02-27T19:13:57.996Z,24.00
2023-02-27T19:16:25.806Z,21.30
2023-02-27T19:18:54.016Z,16.20
2023-02-27T19:21:21.676Z,20.70
2023-02-27T19:23:49.338Z,23.20
2023-02-27T19:26:17.102Z,22.80
2023-02-27T19:28:45.276Z,24.20
2023-02-27T19:31:13.034Z,25.50
2023-02-27T19:33:40.905Z,23.80
2023-02-27T19:36:08.567Z,26.20
2023-02-27T19:38:36.339Z,26.90
2023-02-27T19:41:03.992Z,24.50
2023-02-27T19:43:31.761Z,29.90
2023-02-27T19:45:59.521Z,24.50
2023-02-27T19:48:27.292Z,28.50
2023-02-27T19:50:54.945Z,23.90
2023-02-27T19:53:22.608Z,30.60
2023-02-27T19:55:50.269Z,24.20
2023-02-27T19:58:18.035Z,23.50
2023-02-27T20:00:45.812Z,20.10
2023-02-27T20:03:13.596Z,24.10
2023-02-27T20:05:41.323Z,25.90
2023-02-27T20:08:09.092Z,28.50
2023-02-27T20:10:36.749Z,23.90
2023-02-27T20:13:04.409Z,37.90
2023-02-27T20:15:32.072Z,30.70
2023-02-27T20:17:59.736Z,22.10
2023-02-27T20:20:27.498Z,31.30
2023-02-27T20:22:55.159Z,40.60
2023-02-27T20:25:22.927Z,27.00
2023-02-27T20:27:50.689Z,26.50
2023-02-27T20:30:18.349Z,27.00
2023-02-27T20:32:46.480Z,27.20
2023-02-27T20:35:15.824Z,23.00
2023-02-27T20:37:43.487Z,26.90
2023-02-27T20:40:11.261Z,23.90
2023-02-27T20:42:39.010Z,23.00
2023-02-27T20:45:06.776Z,28.50
2023-02-27T20:47:34.540Z,24.30
2023-02-27T20:50:02.408Z,24.40
2023-02-27T20:52:30.072Z,27.80
2023-02-27T20:54:57.732Z,30.20
2023-02-27T20:57:25.413Z,42.70
2023-02-27T20:59:53.158Z,31.10
2023-02-27T21:02:20.829Z,31.50
2023-02-27T21:04:50.950Z,32.10
2023-02-27T21:07:18.916Z,32.00
2023-02-27T21:09:46.562Z,32.20
2023-02-27T21:12:14.442Z,26.20
2023-02-27T21:14:44.552Z,37.10
2023-02-27T21:17:12.622Z,30.40
2023-02-27T21:19:40.390Z,25.70
2023-02-27T21:22:11.343Z,23.10
2023-02-27T21:24:39.203Z,19.00
2023-02-27T21:27:07.070Z,22.10
2023-02-27T21:29:34.928Z,22.50
2023-02-27T21:32:02.606Z,18.50
2023-02-27T21:34:30.378Z,20.50
2023-02-27T21:36:58.112Z,20.20
2023-02-27T21:39:26.087Z,23.00
2023-02-27T21:41:53.846Z,18.60
2023-02-27T21:44:21.503Z,20.70
2023-02-27T21:46:49.372Z,21.60
2023-02-27T21:49:17.256Z,21.10
2023-02-27T21:51:45.325Z,21.20
2023-02-27T21:57:41.254Z,23.40
2023-02-27T22:00:11.174Z,20.40
2023-02-27T22:02:39.426Z,23.40
2023-02-27T22:05:07.312Z,23.70
2023-02-27T22:07:35.091Z,31.00
2023-02-27T22:10:02.939Z,32.70
2023-02-27T22:12:30.609Z,23.60
2023-02-27T22:14:58.263Z,24.60
2023-02-27T22:17:25.931Z,20.50
2023-02-27T22:19:53.691Z,24.10
2023-02-27T22:22:21.454Z,19.40
2023-02-27T22:24:49.113Z,20.90
2023-02-27T22:27:16.882Z,21.10
2023-02-27T22:29:44.543Z,17.20
2023-02-27T22:32:12.352Z,18.40
2023-02-27T22:34:40.172Z,18.50
2023-02-27T22:37:07.833Z,15.00
2023-02-27T22:39:35.494Z,16.30
2023-02-27T22:42:03.670Z,17.50
2023-02-27T22:44:31.329Z,18.50
2023-02-27T22:46:58.991Z,18.80
2023-02-27T22:49:26.654Z,16.50
2023-02-27T22:51:54.724Z,16.50
2023-02-27T22:54:22.622Z,16.00
2023-02-27T22:56:50.364Z,15.00
2023-02-27T22:59:18.117Z,15.00
2023-02-27T23:01:46.814Z,16.50
2023-02-27T23:04:17.148Z,13.10
2023-02-27T23:06:44.907Z,18.10
2023-02-27T23:09:12.547Z,16.70
2023-02-27T23:11:40.214Z,14.40
2023-02-27T23:14:07.992Z,17.20
2023-02-27T23:16:35.702Z,14.50
2023-02-27T23:19:03.508Z,18.90
2023-02-27T23:21:34.751Z,16.50
2023-02-27T23:24:03.133Z,14.50
2023-02-27T23:26:30.891Z,15.30
2023-02-27T23:28:58.658Z,14.80
2023-02-27T23:31:26.377Z,18.80
2023-02-27T23:33:54.289Z,18.10
2023-02-27T23:36:21.949Z,17.60
2023-02-27T23:38:49.713Z,19.70
2023-02-27T23:41:17.888Z,15.20
2023-02-27T23:43:45.651Z,15.60
2023-02-27T23:46:13.464Z,14.90
2023-02-27T23:48:41.280Z,17.60
2023-02-27T23:51:09.044Z,17.20
2023-02-27T23:53:36.813Z,20.40
2023-02-27T23:56:05.497Z,17.20
2023-02-27T23:58:33.160Z,16.60
